首页
METAR-TAF:

METAR-TAF

机场 :

Imperatriz, 马拉尼昂州, 巴西

纬度: 05-32S, 经度: 047-30W, 海拔: 123米

当前天气观测

该预报发布于55分钟前的19:00 UTC
风速4节,风向南转南东
温度 36°C
湿度 42%
气压 1007 hPa
能见度10公里或以上
散云层高于2500英尺

METAR: SBIZ 171900Z 15004KT 9999 SCT025 36/21 Q1007

时间: 16:55 (19:55 UTC)

预报

该预报发布于3小时和55分钟前的16:00 UTC
预报有效从17日的 18点(UTC)到 18日的 06点(UTC)
风速8节,风向
能见度10公里或以上
多云层高于3000英尺
成为
从 17日的 19点(UTC)到 17日的 21点(UTC)
风速5节,风向
成为
从 17日的 23点(UTC)到 18日的 01点(UTC)
风速节,风向
能见度10公里或以上
1500米以下无云,无积雨云
成为
从 18日的 03点(UTC)到 18日的 05点(UTC)
风速3节,风向东转东北

TAF: SBIZ 171600Z 1718/1806 09008KT 9999 BKN030 TX38/1718Z TN26/1806Z BECMG 1719/1721 09005KT BECMG 1723/1801 00000KT CAVOK BECMG 1803/1805 06003KT RMK PDY

超过4000个机场的气象观测和天气预报(METAR&TAF报告)。

可查询的气象台以黄色和红色小点在地图上表示。

将鼠标移到小点上方,可查看气象台名称。

然后点击查看天气观测和预报。

如需切换地图:点击带黑十字的绿色按钮放大地图;点击带横线的绿色按钮缩小地图;或者点击绿色箭头查看邻近地区的地图。


METAR-TAF: